Time;durP1;ratioP1;P1;durP2;ratioP2;P2;SDS_P1;SDS_P2;PMS_P1;PMS_P2;Temp;Humidity;BMP_temperature;BMP_pressure;BME280_temperature;BME280_humidity;BME280_pressure;Samples;Min_cycle;Max_cycle;Signal;HPM_P1;HPM_P2
2021/10/11 00:00:27;;;;;;;4.55;3.60;;;;;;;;;;5033350;28;20411;-44
2021/10/11 00:02:53;;;;;;;6.90;3.55;;;;;;;;;;5033891;28;20104;-44
2021/10/11 00:05:21;;;;;;;6.68;4.35;;;;;;;;;;5033037;28;20032;-43
2021/10/11 00:07:47;;;;;;;6.80;4.45;;;;;;;;;;5032712;28;20021;-44
2021/10/11 00:10:17;;;;;;;5.15;3.42;;;;;;;;;;5033548;28;20410;-44
2021/10/11 00:12:43;;;;;;;6.63;4.22;;;;;;;;;;5032882;28;20021;-45
2021/10/11 00:15:09;;;;;;;6.32;4.03;;;;;;;;;;5031920;28;20370;-44
2021/10/11 00:17:35;;;;;;;5.45;4.40;;;;;;;;;;5033227;28;20033;-44
2021/10/11 00:20:01;;;;;;;5.05;3.70;;;;;;;;;;5032717;28;20018;-44
2021/10/11 00:22:27;;;;;;;4.90;3.85;;;;;;;;;;5033077;28;20013;-44
2021/10/11 00:24:53;;;;;;;6.15;4.28;;;;;;;;;;5032063;28;20014;-44
2021/10/11 00:27:19;;;;;;;7.20;4.30;;;;;;;;;;5033160;28;20029;-44
2021/10/11 00:29:45;;;;;;;5.57;3.80;;;;;;;;;;5031221;28;20396;-46
2021/10/11 00:32:11;;;;;;;6.13;3.83;;;;;;;;;;5032946;28;20057;-44
2021/10/11 00:34:37;;;;;;;6.63;4.30;;;;;;;;;;5033082;28;20104;-44
2021/10/11 00:37:04;;;;;;;6.28;4.28;;;;;;;;;;5032152;28;20031;-44
2021/10/11 00:39:30;;;;;;;6.63;4.32;;;;;;;;;;5033025;28;20036;-44
2021/10/11 00:41:56;;;;;;;6.20;4.13;;;;;;;;;;5031651;28;20497;-45
2021/10/11 00:44:22;;;;;;;5.82;4.13;;;;;;;;;;5032289;28;20057;-43
2021/10/11 00:46:48;;;;;;;5.03;4.13;;;;;;;;;;5031771;28;20073;-44
2021/10/11 00:49:14;;;;;;;5.47;3.72;;;;;;;;;;5032825;28;20079;-44
2021/10/11 00:51:40;;;;;;;5.57;3.88;;;;;;;;;;5031530;28;20029;-44
2021/10/11 00:54:07;;;;;;;5.22;3.72;;;;;;;;;;5031522;28;20018;-44
2021/10/11 00:56:33;;;;;;;5.25;3.97;;;;;;;;;;5032756;28;20029;-43
2021/10/11 00:58:59;;;;;;;4.85;3.35;;;;;;;;;;5031168;28;20313;-44
2021/10/11 01:01:25;;;;;;;6.00;4.22;;;;;;;;;;5032518;28;20060;-44
2021/10/11 01:03:51;;;;;;;4.43;3.30;;;;;;;;;;5031352;28;20021;-44
2021/10/11 01:06:18;;;;;;;6.18;3.90;;;;;;;;;;5032470;28;20052;-44
2021/10/11 01:08:44;;;;;;;5.45;4.55;;;;;;;;;;5032059;28;20022;-46
2021/10/11 01:11:10;;;;;;;5.68;4.10;;;;;;;;;;5031595;28;20033;-44
2021/10/11 01:13:36;;;;;;;4.70;4.03;;;;;;;;;;5031963;28;20045;-44
2021/10/11 01:16:02;;;;;;;8.48;4.05;;;;;;;;;;5030882;28;20154;-44
2021/10/11 01:18:28;;;;;;;4.88;3.55;;;;;;;;;;5032172;28;20482;-45
2021/10/11 01:20:54;;;;;;;7.65;4.07;;;;;;;;;;5031051;28;20072;-48
2021/10/11 01:23:25;;;;;;;5.07;3.70;;;;;;;;;;5032159;28;20009;-44
2021/10/11 01:25:51;;;;;;;4.68;3.78;;;;;;;;;;5031196;28;20036;-47
2021/10/11 01:28:17;;;;;;;5.30;4.10;;;;;;;;;;5031960;28;20018;-45
2021/10/11 01:30:43;;;;;;;5.10;3.78;;;;;;;;;;5031603;28;20017;-46
2021/10/11 01:33:09;;;;;;;5.00;3.85;;;;;;;;;;5031410;28;20091;-45
2021/10/11 01:35:36;;;;;;;5.57;4.05;;;;;;;;;;5031858;28;20025;-48
2021/10/11 01:38:02;;;;;;;5.07;3.53;;;;;;;;;;5030118;28;20025;-45
2021/10/11 01:40:28;;;;;;;5.85;3.85;;;;;;;;;;5031873;28;20021;-46
2021/10/11 01:42:54;;;;;;;4.25;3.47;;;;;;;;;;5030820;28;20024;-44
2021/10/11 01:45:20;;;;;;;8.27;3.72;;;;;;;;;;5031337;28;20041;-47
2021/10/11 01:47:46;;;;;;;5.35;3.65;;;;;;;;;;5031519;28;20036;-46
2021/10/11 01:50:12;;;;;;;5.72;3.60;;;;;;;;;;5031382;28;20370;-44
2021/10/11 01:52:40;;;;;;;5.10;3.85;;;;;;;;;;5030533;28;20343;-45
2021/10/11 01:55:06;;;;;;;6.03;3.88;;;;;;;;;;5030988;28;20066;-44
2021/10/11 01:57:32;;;;;;;5.72;3.67;;;;;;;;;;5031509;28;20033;-44
2021/10/11 01:59:58;;;;;;;4.90;3.53;;;;;;;;;;5030529;28;20089;-44
2021/10/11 02:02:24;;;;;;;5.00;3.88;;;;;;;;;;5030671;28;20459;-44
2021/10/11 02:04:50;;;;;;;4.53;3.47;;;;;;;;;;5030858;28;20025;-44
2021/10/11 02:07:16;;;;;;;6.28;3.70;;;;;;;;;;5030563;28;20025;-44
2021/10/11 02:09:42;;;;;;;5.53;3.70;;;;;;;;;;5031672;28;20432;-44
2021/10/11 02:12:08;;;;;;;4.68;3.55;;;;;;;;;;5030837;28;20029;-44
2021/10/11 02:14:34;;;;;;;5.05;3.90;;;;;;;;;;5031484;28;20037;-44
2021/10/11 02:17:00;;;;;;;5.47;3.72;;;;;;;;;;5030731;28;20370;-44
2021/10/11 02:19:26;;;;;;;5.55;4.00;;;;;;;;;;5031591;28;20540;-44
2021/10/11 02:21:52;;;;;;;6.15;3.65;;;;;;;;;;5030787;28;20339;-44
2021/10/11 02:24:18;;;;;;;4.55;3.58;;;;;;;;;;5035296;28;20047;-44
2021/10/11 02:26:44;;;;;;;8.65;3.95;;;;;;;;;;5035453;28;20147;-44
2021/10/11 02:29:10;;;;;;;5.20;4.15;;;;;;;;;;5034425;28;20136;-44
2021/10/11 02:31:36;;;;;;;6.47;4.03;;;;;;;;;;5035863;28;20021;-44
2021/10/11 02:34:02;;;;;;;5.05;3.75;;;;;;;;;;5034513;28;20040;-44
2021/10/11 02:36:28;;;;;;;4.50;3.60;;;;;;;;;;5034969;28;20021;-44
2021/10/11 02:38:54;;;;;;;5.75;3.88;;;;;;;;;;5034063;28;20029;-45
2021/10/11 02:41:21;;;;;;;5.05;4.00;;;;;;;;;;5035264;28;20112;-44
2021/10/11 02:43:48;;;;;;;4.25;3.72;;;;;;;;;;5034763;28;20017;-45
2021/10/11 02:46:14;;;;;;;5.13;3.80;;;;;;;;;;5034166;28;20132;-44
2021/10/11 02:48:40;;;;;;;5.43;3.85;;;;;;;;;;5035217;28;20014;-44
2021/10/11 02:51:06;;;;;;;5.35;4.03;;;;;;;;;;5034245;28;20032;-44
2021/10/11 02:53:32;;;;;;;4.90;3.72;;;;;;;;;;5034520;28;20009;-44
2021/10/11 02:55:58;;;;;;;4.28;3.67;;;;;;;;;;5033801;28;20462;-44
2021/10/11 02:58:24;;;;;;;5.55;3.53;;;;;;;;;;5035128;28;20116;-47
2021/10/11 03:00:50;;;;;;;4.50;3.65;;;;;;;;;;5034204;28;20076;-48
2021/10/11 03:03:16;;;;;;;4.57;3.83;;;;;;;;;;5034609;28;20022;-45
2021/10/11 03:05:42;;;;;;;8.35;3.90;;;;;;;;;;5034732;28;20108;-46
2021/10/11 03:08:08;;;;;;;4.75;3.85;;;;;;;;;;5033557;28;20084;-46
2021/10/11 03:10:34;;;;;;;6.20;3.90;;;;;;;;;;5033394;28;20017;-46
2021/10/11 03:13:00;;;;;;;4.85;3.50;;;;;;;;;;5033671;28;20026;-45
2021/10/11 03:15:26;;;;;;;6.50;4.05;;;;;;;;;;5034479;28;20029;-46
2021/10/11 03:17:52;;;;;;;4.70;3.53;;;;;;;;;;5033757;28;20056;-44
2021/10/11 03:20:18;;;;;;;4.93;3.25;;;;;;;;;;5034389;28;20017;-44
2021/10/11 03:22:44;;;;;;;4.60;3.60;;;;;;;;;;5034364;28;20049;-45
2021/10/11 03:25:10;;;;;;;4.22;2.95;;;;;;;;;;5033568;28;20056;-49
2021/10/11 03:27:36;;;;;;;5.13;3.83;;;;;;;;;;5034338;28;20484;-45
2021/10/11 03:30:02;;;;;;;6.60;4.30;;;;;;;;;;5033396;28;20020;-48
2021/10/11 03:32:28;;;;;;;3.97;3.30;;;;;;;;;;5034284;28;20018;-46
2021/10/11 03:34:54;;;;;;;4.03;3.30;;;;;;;;;;5033095;28;20451;-47
2021/10/11 03:37:20;;;;;;;5.90;4.00;;;;;;;;;;5033952;28;20029;-45
2021/10/11 03:39:46;;;;;;;4.57;3.58;;;;;;;;;;5033781;28;20029;-45
2021/10/11 03:42:12;;;;;;;4.63;3.30;;;;;;;;;;5042094;28;20025;-46
2021/10/11 03:44:38;;;;;;;5.13;3.75;;;;;;;;;;5041405;28;20048;-49
2021/10/11 03:47:04;;;;;;;4.15;3.33;;;;;;;;;;5042648;28;20154;-45
2021/10/11 03:49:30;;;;;;;6.22;4.35;;;;;;;;;;5042370;28;20025;-44
2021/10/11 03:51:56;;;;;;;5.10;3.33;;;;;;;;;;5041162;28;20016;-46
2021/10/11 03:54:22;;;;;;;5.40;3.85;;;;;;;;;;5042054;28;20017;-44
2021/10/11 03:56:48;;;;;;;3.85;3.13;;;;;;;;;;5042210;28;20039;-46
2021/10/11 03:59:14;;;;;;;4.45;3.58;;;;;;;;;;5041896;28;20032;-46
2021/10/11 04:01:40;;;;;;;3.80;3.30;;;;;;;;;;5041180;28;20029;-45
2021/10/11 04:04:07;;;;;;;4.43;3.60;;;;;;;;;;5042312;28;20071;-44
2021/10/11 04:06:33;;;;;;;5.18;3.47;;;;;;;;;;5042224;28;20029;-48
2021/10/11 04:09:00;;;;;;;7.93;4.32;;;;;;;;;;5042202;28;20236;-44
2021/10/11 04:11:26;;;;;;;3.92;3.30;;;;;;;;;;5041240;28;20036;-44
2021/10/11 04:13:53;;;;;;;6.07;3.85;;;;;;;;;;5041351;28;20031;-45
2021/10/11 04:16:19;;;;;;;7.38;3.65;;;;;;;;;;5042827;28;20059;-44
2021/10/11 04:18:45;;;;;;;4.70;3.67;;;;;;;;;;5040165;28;20079;-44
2021/10/11 04:21:11;;;;;;;7.05;3.75;;;;;;;;;;5041066;28;20017;-44
2021/10/11 04:23:37;;;;;;;5.88;3.53;;;;;;;;;;5041327;28;20409;-44
2021/10/11 04:26:03;;;;;;;6.47;3.70;;;;;;;;;;5042005;28;20017;-44
2021/10/11 04:28:29;;;;;;;4.43;3.90;;;;;;;;;;5041487;28;20052;-43
2021/10/11 04:30:55;;;;;;;4.35;3.67;;;;;;;;;;5040495;28;20032;-44
2021/10/11 04:33:23;;;;;;;4.22;3.58;;;;;;;;;;5042486;28;20472;-44
2021/10/11 04:35:49;;;;;;;4.40;3.35;;;;;;;;;;5040818;28;20402;-47
2021/10/11 04:38:15;;;;;;;4.60;2.95;;;;;;;;;;5041597;28;20017;-44
2021/10/11 04:40:42;;;;;;;5.30;3.80;;;;;;;;;;5040515;28;20028;-44
2021/10/11 04:43:08;;;;;;;5.35;3.85;;;;;;;;;;5041364;28;20082;-44
2021/10/11 04:45:34;;;;;;;4.40;3.13;;;;;;;;;;5040954;28;20120;-44
2021/10/11 04:48:01;;;;;;;5.03;3.63;;;;;;;;;;5039108;28;20021;-44
2021/10/11 04:50:29;;;;;;;4.70;3.55;;;;;;;;;;5037902;28;20022;-44
2021/10/11 04:52:55;;;;;;;4.43;3.33;;;;;;;;;;5040131;28;20458;-44
2021/10/11 04:55:21;;;;;;;4.68;3.20;;;;;;;;;;5042316;28;20095;-44
2021/10/11 04:57:47;;;;;;;5.38;3.90;;;;;;;;;;5049670;28;20059;-46
2021/10/11 05:00:14;;;;;;;4.50;3.45;;;;;;;;;;5051850;28;20025;-45
2021/10/11 05:02:40;;;;;;;4.47;3.90;;;;;;;;;;5035617;28;20354;-44
2021/10/11 05:05:06;;;;;;;5.07;3.55;;;;;;;;;;5031658;28;20056;-44
2021/10/11 05:07:32;;;;;;;6.28;4.70;;;;;;;;;;5032080;28;20068;-49
2021/10/11 05:09:58;;;;;;;5.20;4.13;;;;;;;;;;5030747;28;20026;-44
2021/10/11 05:12:24;;;;;;;5.10;3.10;;;;;;;;;;5032386;28;20022;-44
2021/10/11 05:14:50;;;;;;;5.38;3.65;;;;;;;;;;5030503;28;20068;-46
2021/10/11 05:17:17;;;;;;;6.07;3.95;;;;;;;;;;5031826;28;20477;-44
2021/10/11 05:19:43;;;;;;;5.15;4.13;;;;;;;;;;5031836;28;20052;-44
2021/10/11 05:22:09;;;;;;;4.82;3.85;;;;;;;;;;5031377;28;20074;-45
2021/10/11 05:24:35;;;;;;;4.85;3.72;;;;;;;;;;5031471;28;20021;-44
2021/10/11 05:27:01;;;;;;;6.18;3.92;;;;;;;;;;5031131;28;20032;-44
2021/10/11 05:29:27;;;;;;;7.13;3.97;;;;;;;;;;5032035;28;20097;-45
2021/10/11 05:31:53;;;;;;;9.23;4.25;;;;;;;;;;5031379;28;20017;-45
2021/10/11 05:34:19;;;;;;;4.72;3.63;;;;;;;;;;5031882;28;20095;-46
2021/10/11 05:36:45;;;;;;;4.22;3.50;;;;;;;;;;5031694;28;20041;-44
2021/10/11 05:39:11;;;;;;;4.93;3.08;;;;;;;;;;5031464;28;20077;-48
2021/10/11 05:41:37;;;;;;;7.13;4.10;;;;;;;;;;5032049;28;20477;-48
2021/10/11 05:44:04;;;;;;;8.70;3.63;;;;;;;;;;5031838;28;20018;-46
2021/10/11 05:46:30;;;;;;;4.32;3.55;;;;;;;;;;5032173;28;20401;-44
2021/10/11 05:48:56;;;;;;;10.73;4.25;;;;;;;;;;5030257;28;20022;-45
2021/10/11 05:51:22;;;;;;;7.80;4.30;;;;;;;;;;5032066;28;20021;-44
2021/10/11 05:53:48;;;;;;;7.30;4.25;;;;;;;;;;5030670;28;20014;-44
2021/10/11 05:56:14;;;;;;;6.03;3.28;;;;;;;;;;5030925;28;20021;-46
2021/10/11 05:58:40;;;;;;;6.47;4.10;;;;;;;;;;5031478;28;20022;-45
2021/10/11 06:01:05;;;;;;;5.43;3.88;;;;;;;;;;5031216;28;20363;-47
2021/10/11 06:03:31;;;;;;;7.15;3.50;;;;;;;;;;5031330;28;20024;-45
2021/10/11 06:05:57;;;;;;;10.30;4.68;;;;;;;;;;5031176;28;20025;-45
2021/10/11 06:08:25;;;;;;;10.48;3.47;;;;;;;;;;5031726;28;20030;-45
2021/10/11 06:10:51;;;;;;;8.18;3.75;;;;;;;;;;5031455;28;20053;-45
2021/10/11 06:13:17;;;;;;;9.88;3.47;;;;;;;;;;5030940;28;20022;-44
2021/10/11 06:15:45;;;;;;;7.10;3.65;;;;;;;;;;5031538;28;20029;-44
2021/10/11 06:18:11;;;;;;;9.57;4.43;;;;;;;;;;5023776;28;20037;-45
2021/10/11 06:20:37;;;;;;;11.40;5.00;;;;;;;;;;5030853;28;20121;-45
2021/10/11 06:23:03;;;;;;;10.00;4.32;;;;;;;;;;5030837;28;20071;-44
2021/10/11 06:25:29;;;;;;;5.35;3.72;;;;;;;;;;5031224;28;20814;-44
2021/10/11 06:27:55;;;;;;;10.25;4.28;;;;;;;;;;5030802;28;20410;-46
2021/10/11 06:30:21;;;;;;;10.13;5.13;;;;;;;;;;5031370;28;20029;-44
2021/10/11 06:32:47;;;;;;;6.32;4.40;;;;;;;;;;5031556;28;20025;-44
2021/10/11 06:35:13;;;;;;;17.38;5.28;;;;;;;;;;5030452;28;20033;-45
2021/10/11 06:37:39;;;;;;;10.15;4.95;;;;;;;;;;5031513;28;20029;-45
2021/10/11 06:40:06;;;;;;;9.32;4.60;;;;;;;;;;5030655;28;20425;-44
2021/10/11 06:42:32;;;;;;;8.20;4.88;;;;;;;;;;5031452;28;20044;-45
2021/10/11 06:44:58;;;;;;;7.38;4.85;;;;;;;;;;5028927;28;20091;-44
2021/10/11 06:47:24;;;;;;;8.25;5.28;;;;;;;;;;5030732;28;20026;-44
2021/10/11 06:49:50;;;;;;;12.57;5.63;;;;;;;;;;5031251;28;20340;-45
2021/10/11 06:52:16;;;;;;;7.68;4.28;;;;;;;;;;5029637;28;20155;-44
2021/10/11 06:54:43;;;;;;;6.38;4.25;;;;;;;;;;5029079;28;20010;-46
2021/10/11 06:57:09;;;;;;;8.50;4.82;;;;;;;;;;5029435;28;20462;-46
2021/10/11 06:59:35;;;;;;;8.25;5.00;;;;;;;;;;5030938;28;20470;-44
2021/10/11 07:02:02;;;;;;;8.93;5.43;;;;;;;;;;5030329;28;20010;-47
2021/10/11 07:04:28;;;;;;;8.25;4.65;;;;;;;;;;5030659;28;20022;-50
2021/10/11 07:06:54;;;;;;;6.55;4.72;;;;;;;;;;5030524;28;20025;-47
2021/10/11 07:09:20;;;;;;;6.80;4.32;;;;;;;;;;5031115;28;20097;-45
2021/10/11 07:11:50;;;;;;;7.95;4.78;;;;;;;;;;5034402;28;20156;-44
2021/10/11 07:14:16;;;;;;;7.75;4.40;;;;;;;;;;5033587;28;20022;-44
2021/10/11 07:16:42;;;;;;;7.20;4.15;;;;;;;;;;5034320;28;20037;-45
2021/10/11 07:19:11;;;;;;;8.40;4.97;;;;;;;;;;5033652;28;20089;-45
2021/10/11 07:21:37;;;;;;;9.82;4.85;;;;;;;;;;5034047;28;20020;-47
2021/10/11 07:24:03;;;;;;;9.23;4.90;;;;;;;;;;5033223;28;20030;-44
2021/10/11 07:26:29;;;;;;;7.95;5.20;;;;;;;;;;5034084;28;20025;-46
2021/10/11 07:28:55;;;;;;;6.25;4.53;;;;;;;;;;5034008;28;20111;-49
2021/10/11 07:31:21;;;;;;;6.68;4.97;;;;;;;;;;5033643;28;20485;-44
2021/10/11 07:33:47;;;;;;;6.63;4.30;;;;;;;;;;5033982;28;20022;-45
2021/10/11 07:36:13;;;;;;;7.38;5.00;;;;;;;;;;5033086;28;20056;-46
2021/10/11 07:38:39;;;;;;;6.65;4.45;;;;;;;;;;5033885;28;20481;-46
2021/10/11 07:41:07;;;;;;;7.55;4.80;;;;;;;;;;5033315;28;20025;-44
2021/10/11 07:43:33;;;;;;;7.90;4.68;;;;;;;;;;5033883;28;20013;-44
2021/10/11 07:46:03;;;;;;;6.60;4.80;;;;;;;;;;5033107;28;20517;-44
2021/10/11 07:48:29;;;;;;;8.82;5.57;;;;;;;;;;5033782;28;20108;-44
2021/10/11 07:50:56;;;;;;;6.45;4.35;;;;;;;;;;5033261;28;20048;-47
2021/10/11 07:53:22;;;;;;;5.60;4.13;;;;;;;;;;5033387;28;20574;-48
2021/10/11 07:55:48;;;;;;;6.55;4.75;;;;;;;;;;5033499;28;20104;-44
2021/10/11 07:58:14;;;;;;;7.28;4.80;;;;;;;;;;5032764;28;20072;-44
2021/10/11 08:00:40;;;;;;;6.60;4.80;;;;;;;;;;5033692;28;20057;-44
2021/10/11 08:03:06;;;;;;;7.88;4.95;;;;;;;;;;5032952;28;20366;-45
2021/10/11 08:05:32;;;;;;;7.30;5.07;;;;;;;;;;5033377;28;20022;-45
2021/10/11 08:07:58;;;;;;;8.88;4.57;;;;;;;;;;5032815;28;20022;-48
2021/10/11 08:10:24;;;;;;;8.13;4.18;;;;;;;;;;5033300;28;20079;-46
2021/10/11 08:12:50;;;;;;;7.45;4.15;;;;;;;;;;5033563;28;20101;-44
2021/10/11 08:15:17;;;;;;;6.85;4.88;;;;;;;;;;5032234;28;20263;-44
2021/10/11 08:17:44;;;;;;;8.45;4.60;;;;;;;;;;5033048;28;20037;-47
2021/10/11 08:20:10;;;;;;;6.68;4.60;;;;;;;;;;5032276;28;20026;-44
2021/10/11 08:22:36;;;;;;;6.15;4.70;;;;;;;;;;5032542;28;20072;-44
2021/10/11 08:25:03;;;;;;;7.43;4.97;;;;;;;;;;5032274;28;20109;-46
2021/10/11 08:27:29;;;;;;;6.70;4.90;;;;;;;;;;5033095;28;20112;-44
2021/10/11 08:29:55;;;;;;;8.23;4.95;;;;;;;;;;5032978;28;20024;-44
2021/10/11 08:32:29;;;;;;;7.50;4.75;;;;;;;;;;5032117;28;20388;-44
2021/10/11 08:34:55;;;;;;;8.43;4.40;;;;;;;;;;5033099;28;20022;-44
2021/10/11 08:37:21;;;;;;;7.95;5.18;;;;;;;;;;5031915;28;20490;-44
2021/10/11 08:39:48;;;;;;;10.45;5.13;;;;;;;;;;5032937;28;20044;-45
2021/10/11 08:42:15;;;;;;;9.43;5.38;;;;;;;;;;5032136;28;20103;-44
2021/10/11 08:44:41;;;;;;;9.25;5.38;;;;;;;;;;5032522;28;20042;-45
2021/10/11 08:47:11;;;;;;;8.48;5.60;;;;;;;;;;5031952;28;20026;-45
2021/10/11 08:49:45;;;;;;;7.68;5.20;;;;;;;;;;5032418;28;20450;-44
2021/10/11 08:52:11;;;;;;;7.70;5.00;;;;;;;;;;5030517;28;20026;-44
2021/10/11 08:54:38;;;;;;;7.53;4.80;;;;;;;;;;5032737;28;20513;-47
2021/10/11 08:57:07;;;;;;;6.35;4.97;;;;;;;;;;5031874;28;20044;-45
2021/10/11 08:59:33;;;;;;;7.63;5.55;;;;;;;;;;5032104;28;20093;-44
2021/10/11 09:02:03;;;;;;;11.40;5.88;;;;;;;;;;5031975;28;20117;-47
2021/10/11 09:04:29;;;;;;;9.18;5.88;;;;;;;;;;5032564;28;20100;-47
2021/10/11 09:07:06;;;;;;;7.45;5.30;;;;;;;;;;5032450;28;20031;-46
2021/10/11 09:09:32;;;;;;;10.18;5.53;;;;;;;;;;5030779;28;20095;-44
2021/10/11 09:11:59;;;;;;;7.07;5.07;;;;;;;;;;5032224;28;20112;-46
2021/10/11 09:14:25;;;;;;;8.55;5.82;;;;;;;;;;5031795;28;20018;-47
2021/10/11 09:17:02;;;;;;;7.68;5.78;;;;;;;;;;5032156;28;20026;-48
2021/10/11 09:19:32;;;;;;;7.07;5.22;;;;;;;;;;5032395;28;20025;-48
2021/10/11 09:21:58;;;;;;;8.00;5.13;;;;;;;;;;5032296;28;20454;-46
2021/10/11 09:24:24;;;;;;;8.68;5.32;;;;;;;;;;5031448;28;20025;-44
2021/10/11 09:26:51;;;;;;;8.52;4.95;;;;;;;;;;5032206;28;20025;-47
2021/10/11 09:29:33;;;;;;;8.50;5.50;;;;;;;;;;5031286;28;20101;-47
2021/10/11 09:32:01;;;;;;;8.02;4.97;;;;;;;;;;5031201;28;20459;-48
2021/10/11 09:34:27;;;;;;;9.07;5.43;;;;;;;;;;5031787;28;20033;-47
2021/10/11 09:37:06;;;;;;;7.25;5.60;;;;;;;;;;5031894;28;20018;-44
2021/10/11 09:39:34;;;;;;;9.68;5.50;;;;;;;;;;5031509;28;20025;-44
2021/10/11 09:42:01;;;;;;;8.48;5.35;;;;;;;;;;5031679;28;20025;-47
2021/10/11 09:44:27;;;;;;;9.18;5.85;;;;;;;;;;5031289;28;20045;-44
2021/10/11 09:47:04;;;;;;;8.27;5.45;;;;;;;;;;5031324;28;20532;-44
2021/10/11 09:49:30;;;;;;;9.68;4.82;;;;;;;;;;5031848;28;20022;-44
2021/10/11 09:51:57;;;;;;;6.50;5.03;;;;;;;;;;5031591;28;20524;-46
2021/10/11 09:54:23;;;;;;;7.20;4.97;;;;;;;;;;5030757;28;20056;-46
2021/10/11 09:56:50;;;;;;;6.53;4.97;;;;;;;;;;5031686;28;20480;-45
2021/10/11 09:59:16;;;;;;;29.52;5.65;;;;;;;;;;5030929;28;20037;-44
2021/10/11 10:01:44;;;;;;;10.02;5.57;;;;;;;;;;5031729;28;20021;-44
2021/10/11 10:04:18;;;;;;;8.93;5.32;;;;;;;;;;5030799;28;20072;-44
2021/10/11 10:06:46;;;;;;;8.43;5.72;;;;;;;;;;5031684;28;20031;-44
2021/10/11 10:09:13;;;;;;;7.35;4.95;;;;;;;;;;5030602;28;20025;-44
2021/10/11 10:11:39;;;;;;;10.93;5.57;;;;;;;;;;5031545;28;20083;-44
2021/10/11 10:14:06;;;;;;;8.60;5.15;;;;;;;;;;5030110;28;20082;-45
2021/10/11 10:16:33;;;;;;;9.32;6.13;;;;;;;;;;5030976;28;20501;-44
2021/10/11 10:19:08;;;;;;;9.15;5.22;;;;;;;;;;5031445;28;20025;-44
2021/10/11 10:21:34;;;;;;;9.13;4.95;;;;;;;;;;5031331;28;20026;-44
2021/10/11 10:24:00;;;;;;;8.20;4.57;;;;;;;;;;5030288;28;20358;-45
2021/10/11 10:26:35;;;;;;;9.65;5.65;;;;;;;;;;5030268;28;20082;-43
2021/10/11 10:29:10;;;;;;;8.48;5.38;;;;;;;;;;5031509;28;20100;-44
2021/10/11 10:31:37;;;;;;;7.85;5.50;;;;;;;;;;5031230;28;20374;-44
2021/10/11 10:34:19;;;;;;;7.82;5.10;;;;;;;;;;5031062;28;20332;-46
2021/10/11 10:36:46;;;;;;;8.55;4.97;;;;;;;;;;5031375;28;20048;-44
2021/10/11 10:39:14;;;;;;;9.88;5.45;;;;;;;;;;5030518;28;20017;-44
2021/10/11 10:41:43;;;;;;;9.95;5.28;;;;;;;;;;5030821;28;20352;-46
2021/10/11 10:44:18;;;;;;;9.55;6.18;;;;;;;;;;5030370;28;20024;-47
2021/10/11 10:47:03;;;;;;;12.55;7.55;;;;;;;;;;5034803;28;20060;-44
2021/10/11 10:49:33;;;;;;;9.45;6.28;;;;;;;;;;5034850;28;20025;-44
2021/10/11 10:52:00;;;;;;;11.18;6.95;;;;;;;;;;5034851;28;20014;-44
2021/10/11 10:54:39;;;;;;;13.23;7.10;;;;;;;;;;5033609;28;20028;-44
2021/10/11 10:57:07;;;;;;;11.02;7.65;;;;;;;;;;5034191;28;20029;-47
2021/10/11 10:59:33;;;;;;;10.45;5.97;;;;;;;;;;5034730;28;20021;-46
2021/10/11 11:02:04;;;;;;;10.57;6.18;;;;;;;;;;5034873;28;20026;-45
2021/10/11 11:04:30;;;;;;;12.68;7.47;;;;;;;;;;5034184;28;20067;-45
2021/10/11 11:07:00;;;;;;;8.57;6.60;;;;;;;;;;5034803;28;20021;-47
2021/10/11 11:09:37;;;;;;;10.13;6.28;;;;;;;;;;5033626;28;20036;-45
2021/10/11 11:12:03;;;;;;;10.00;6.60;;;;;;;;;;5034564;28;20027;-49
2021/10/11 11:14:29;;;;;;;10.23;6.47;;;;;;;;;;5033308;28;20034;-45
2021/10/11 11:16:55;;;;;;;11.63;5.90;;;;;;;;;;5034110;28;20542;-44
2021/10/11 11:19:22;;;;;;;9.35;6.10;;;;;;;;;;5033152;28;20092;-46
2021/10/11 11:21:58;;;;;;;12.77;6.07;;;;;;;;;;5034349;28;20481;-44
2021/10/11 11:24:24;;;;;;;10.95;5.82;;;;;;;;;;5033551;28;20021;-45
2021/10/11 11:26:50;;;;;;;10.40;6.45;;;;;;;;;;5034258;28;20104;-46
2021/10/11 11:29:16;;;;;;;12.55;6.07;;;;;;;;;;5033251;28;20417;-45
2021/10/11 11:31:52;;;;;;;13.68;6.63;;;;;;;;;;5033989;28;20017;-45
2021/10/11 11:34:18;;;;;;;10.82;6.28;;;;;;;;;;5032229;28;20340;-44
2021/10/11 11:36:54;;;;;;;9.65;6.97;;;;;;;;;;5034145;28;20417;-44
2021/10/11 11:39:21;;;;;;;10.10;7.10;;;;;;;;;;5033328;28;20060;-44
2021/10/11 11:41:54;;;;;;;8.70;5.85;;;;;;;;;;5033952;28;20075;-44
2021/10/11 11:44:27;;;;;;;11.02;6.32;;;;;;;;;;5032868;28;20127;-44
2021/10/11 11:47:22;;;;;;;8.48;5.97;;;;;;;;;;5033442;28;20470;-44
2021/10/11 11:49:48;;;;;;;10.40;6.05;;;;;;;;;;5033478;28;20041;-44
2021/10/11 11:52:14;;;;;;;13.00;6.03;;;;;;;;;;5032970;28;20027;-44
2021/10/11 11:54:52;;;;;;;11.27;4.97;;;;;;;;;;5033599;28;20014;-44
2021/10/11 11:57:19;;;;;;;9.60;5.50;;;;;;;;;;5032637;28;20047;-43
2021/10/11 11:59:45;;;;;;;9.10;5.78;;;;;;;;;;5033683;28;20100;-44
2021/10/11 12:02:14;;;;;;;8.27;5.50;;;;;;;;;;5032661;28;20079;-44
2021/10/11 12:04:42;;;;;;;7.20;5.47;;;;;;;;;;5033507;28;20036;-44
2021/10/11 12:07:08;;;;;;;11.30;5.72;;;;;;;;;;5032977;28;20117;-45
2021/10/11 12:09:34;;;;;;;9.95;5.95;;;;;;;;;;5033348;28;20018;-44
2021/10/11 12:12:02;;;;;;;12.73;6.75;;;;;;;;;;5033781;28;20029;-44
2021/10/11 12:14:28;;;;;;;10.38;5.90;;;;;;;;;;5032483;28;20018;-46
2021/10/11 12:17:01;;;;;;;13.32;5.88;;;;;;;;;;5032425;28;20033;-44
2021/10/11 12:19:31;;;;;;;8.10;5.93;;;;;;;;;;5032253;28;20246;-44
2021/10/11 12:21:58;;;;;;;7.75;5.60;;;;;;;;;;5033583;28;20040;-45
2021/10/11 12:24:25;;;;;;;10.50;5.57;;;;;;;;;;5032537;28;20021;-44
2021/10/11 12:26:52;;;;;;;8.23;5.25;;;;;;;;;;5033101;28;20025;-44
2021/10/11 12:29:19;;;;;;;8.30;5.97;;;;;;;;;;5032224;28;20021;-44
2021/10/11 12:31:54;;;;;;;8.70;5.65;;;;;;;;;;5033175;28;20513;-44
2021/10/11 12:34:25;;;;;;;18.00;6.40;;;;;;;;;;5012366;28;20025;-44
2021/10/11 12:36:53;;;;;;;9.70;6.10;;;;;;;;;;5013546;28;20160;-44
2021/10/11 12:39:19;;;;;;;10.13;5.93;;;;;;;;;;5012174;28;20463;-44
2021/10/11 12:41:49;;;;;;;8.13;5.95;;;;;;;;;;5013174;28;20026;-44
2021/10/11 12:44:21;;;;;;;8.95;5.50;;;;;;;;;;5011769;28;20056;-44
2021/10/11 12:46:47;;;;;;;10.05;6.30;;;;;;;;;;5015247;28;20033;-44
2021/10/11 12:49:15;;;;;;;9.73;5.45;;;;;;;;;;5032120;28;20100;-44
2021/10/11 12:51:41;;;;;;;8.90;5.38;;;;;;;;;;5032894;28;20459;-44
2021/10/11 12:54:09;;;;;;;8.10;5.53;;;;;;;;;;5032514;28;20021;-47
2021/10/11 12:56:35;;;;;;;12.70;6.65;;;;;;;;;;5032515;28;20029;-44
2021/10/11 12:59:03;;;;;;;12.40;6.68;;;;;;;;;;5032730;28;20022;-44
2021/10/11 13:01:29;;;;;;;9.80;5.32;;;;;;;;;;5031939;28;20029;-44
2021/10/11 13:03:55;;;;;;;10.32;6.03;;;;;;;;;;5032548;28;20049;-44
2021/10/11 13:06:25;;;;;;;9.95;5.10;;;;;;;;;;5031561;28;20025;-43
2021/10/11 13:08:52;;;;;;;9.60;5.60;;;;;;;;;;5032273;28;20097;-42
2021/10/11 13:11:18;;;;;;;9.95;5.82;;;;;;;;;;5031919;28;20029;-44
2021/10/11 13:13:46;;;;;;;8.70;5.65;;;;;;;;;;5032288;28;20028;-44
2021/10/11 13:16:12;;;;;;;8.30;5.55;;;;;;;;;;5031218;28;20132;-45
2021/10/11 13:18:39;;;;;;;10.55;5.97;;;;;;;;;;5032161;28;20489;-44
2021/10/11 13:21:06;;;;;;;10.55;5.80;;;;;;;;;;5032322;28;20033;-44
2021/10/11 13:23:32;;;;;;;8.95;4.88;;;;;;;;;;5031523;28;20124;-44
2021/10/11 13:25:58;;;;;;;8.02;5.70;;;;;;;;;;5031117;28;20017;-44
2021/10/11 13:28:25;;;;;;;8.35;5.43;;;;;;;;;;5031012;28;20043;-44
2021/10/11 14:27:59;;;;;;;10.30;6.68;;;;;;;;;;5035312;28;20028;-44
2021/10/11 14:33:36;;;;;;;10.38;6.95;;;;;;;;;;5035437;28;20030;-44
2021/10/11 15:58:15;;;;;;;14.60;8.30;;;;;;;;;;5033627;28;20033;-43
2021/10/11 16:01:01;;;;;;;15.43;7.90;;;;;;;;;;5033613;28;20100;-43
2021/10/11 16:06:07;;;;;;;13.50;8.00;;;;;;;;;;5033692;28;20037;-42
2021/10/11 16:08:33;;;;;;;11.73;8.70;;;;;;;;;;5032875;28;20463;-42
2021/10/11 16:10:59;;;;;;;13.48;8.20;;;;;;;;;;5033613;28;20106;-42
2021/10/11 16:13:25;;;;;;;12.40;7.90;;;;;;;;;;5032121;28;20037;-43
2021/10/11 16:15:51;;;;;;;15.05;8.00;;;;;;;;;;5033422;28;20021;-42
2021/10/11 16:18:17;;;;;;;21.75;9.60;;;;;;;;;;5032527;28;20036;-45
2021/10/11 16:20:44;;;;;;;16.40;9.88;;;;;;;;;;5033124;28;20465;-43
2021/10/11 16:23:11;;;;;;;14.07;9.93;;;;;;;;;;5033403;28;20489;-43
2021/10/11 16:25:37;;;;;;;13.57;9.30;;;;;;;;;;5032618;28;20056;-41
2021/10/11 16:28:04;;;;;;;19.23;11.18;;;;;;;;;;5033197;28;20032;-42
2021/10/11 16:30:30;;;;;;;15.77;9.95;;;;;;;;;;5032440;28;20024;-44
2021/10/11 16:32:58;;;;;;;19.55;9.35;;;;;;;;;;5033163;28;20024;-45
2021/10/11 16:35:24;;;;;;;18.77;9.52;;;;;;;;;;5031101;28;20089;-43
2021/10/11 16:37:50;;;;;;;21.27;10.07;;;;;;;;;;5032822;28;20526;-43
2021/10/11 16:40:16;;;;;;;21.50;9.65;;;;;;;;;;5032807;28;20117;-45
2021/10/11 16:42:42;;;;;;;22.10;10.52;;;;;;;;;;5032895;28;20052;-44
2021/10/11 16:45:08;;;;;;;17.88;9.88;;;;;;;;;;5032873;28;20045;-43
2021/10/11 16:47:34;;;;;;;21.23;9.73;;;;;;;;;;5032206;28;20087;-43
2021/10/11 16:50:00;;;;;;;18.38;10.85;;;;;;;;;;5032989;28;20355;-43
2021/10/11 16:52:26;;;;;;;22.05;10.55;;;;;;;;;;5032105;28;20024;-43
2021/10/11 16:54:52;;;;;;;22.55;10.52;;;;;;;;;;5033005;28;20018;-42
2021/10/11 16:57:19;;;;;;;21.40;10.15;;;;;;;;;;5032213;28;20068;-43
2021/10/11 16:59:47;;;;;;;13.95;9.45;;;;;;;;;;5032499;28;20037;-42
2021/10/11 17:02:13;;;;;;;21.40;10.23;;;;;;;;;;5032388;28;20457;-41
2021/10/11 17:04:39;;;;;;;23.80;9.05;;;;;;;;;;5031801;28;20036;-40